createdAt,value
2018-12-06T00:01:20.427Z,1.25
2018-12-06T00:03:48.215Z,1.22
2018-12-06T00:06:16.006Z,1.17
2018-12-06T00:08:45.843Z,1.13
2018-12-06T00:11:13.502Z,1.22
2018-12-06T00:13:41.117Z,1.33
2018-12-06T00:16:08.742Z,1.29
2018-12-06T00:18:36.543Z,1.36
2018-12-06T00:21:04.186Z,1.35
2018-12-06T00:23:31.805Z,1.38
2018-12-06T00:25:59.429Z,1.38
2018-12-06T00:28:27.180Z,1.42
2018-12-06T00:30:55.719Z,1.51
2018-12-06T00:33:23.337Z,1.44
2018-12-06T00:35:50.954Z,1.50
2018-12-06T00:38:18.659Z,1.51
2018-12-06T00:40:46.394Z,1.49
2018-12-06T00:43:14.842Z,1.55
2018-12-06T00:45:43.771Z,1.53
2018-12-06T00:48:12.381Z,1.46
2018-12-06T00:50:40.018Z,1.51
2018-12-06T00:53:07.638Z,1.52
2018-12-06T00:55:36.071Z,1.54
2018-12-06T00:58:04.392Z,1.55
2018-12-06T01:00:33.023Z,1.60
2018-12-06T01:03:00.821Z,1.62
2018-12-06T01:05:28.627Z,1.53
2018-12-06T01:07:56.254Z,1.61
2018-12-06T01:10:23.879Z,1.66
2018-12-06T01:12:52.351Z,1.62
2018-12-06T01:15:19.967Z,1.67
2018-12-06T01:17:47.589Z,1.65
2018-12-06T01:20:15.255Z,1.62
2018-12-06T01:22:43.733Z,1.64
2018-12-06T01:25:11.621Z,1.61
2018-12-06T01:27:39.326Z,1.74
2018-12-06T01:30:07.318Z,1.72
2018-12-06T01:32:34.937Z,1.65
2018-12-06T01:35:02.551Z,1.67
2018-12-06T01:37:31.184Z,1.64
2018-12-06T01:39:58.893Z,1.72
2018-12-06T01:42:26.506Z,1.81
2018-12-06T01:44:54.119Z,1.80
2018-12-06T01:47:21.742Z,1.89
2018-12-06T01:49:49.470Z,1.89
2018-12-06T01:52:17.358Z,1.91
2018-12-06T01:54:44.973Z,1.84
2018-12-06T01:57:12.591Z,1.83
2018-12-06T01:59:40.256Z,1.84
2018-12-06T02:02:08.016Z,1.89
2018-12-06T02:04:35.676Z,1.88
2018-12-06T02:07:03.310Z,1.85
2018-12-06T02:09:31.077Z,2.01
2018-12-06T02:12:03.695Z,1.98
2018-12-06T02:14:31.326Z,2.10
2018-12-06T02:16:58.984Z,2.03
2018-12-06T02:19:26.601Z,2.03
2018-12-06T02:21:54.223Z,2.09
2018-12-06T02:24:21.836Z,1.95
2018-12-06T02:26:50.353Z,2.08
2018-12-06T02:29:18.676Z,1.93
2018-12-06T02:31:47.152Z,1.88
2018-12-06T02:34:14.777Z,1.91
2018-12-06T02:36:42.512Z,1.99
2018-12-06T02:39:10.140Z,1.95
2018-12-06T02:41:37.774Z,2.02
2018-12-06T02:44:06.190Z,1.92
2018-12-06T02:46:34.570Z,2.01
2018-12-06T02:49:02.999Z,1.98
2018-12-06T02:51:30.683Z,1.94
2018-12-06T02:53:58.330Z,1.92
2018-12-06T02:56:26.869Z,2.00
2018-12-06T02:58:54.506Z,1.90
2018-12-06T03:01:22.132Z,1.97
2018-12-06T03:03:50.646Z,1.94
2018-12-06T03:06:19.288Z,2.02
2018-12-06T03:08:47.732Z,1.95
2018-12-06T03:11:16.294Z,2.00
2018-12-06T03:13:44.157Z,2.01
2018-12-06T03:16:11.783Z,2.02
2018-12-06T03:18:39.403Z,2.08
2018-12-06T03:21:07.105Z,2.06
2018-12-06T03:23:34.959Z,2.00
2018-12-06T03:26:02.741Z,2.00
2018-12-06T03:28:30.444Z,1.99
2018-12-06T03:30:58.229Z,2.05
2018-12-06T03:33:25.839Z,2.00
2018-12-06T03:35:54.244Z,2.03
2018-12-06T03:38:22.033Z,2.02
2018-12-06T03:40:49.824Z,1.99
2018-12-06T03:43:17.453Z,2.02
2018-12-06T03:45:45.112Z,2.03
2018-12-06T03:48:13.549Z,2.08
2018-12-06T03:50:41.163Z,2.08
2018-12-06T03:53:08.785Z,2.17
2018-12-06T03:55:36.500Z,2.21
2018-12-06T03:58:04.125Z,2.21
2018-12-06T04:00:31.742Z,2.23
2018-12-06T04:03:00.177Z,2.21
2018-12-06T04:05:27.797Z,2.28
2018-12-06T04:07:56.265Z,2.25
2018-12-06T04:10:23.994Z,2.20
2018-12-06T04:12:52.816Z,2.28
2018-12-06T04:15:20.599Z,2.24
2018-12-06T04:17:48.390Z,2.27
2018-12-06T04:20:16.180Z,2.28
2018-12-06T04:22:44.643Z,2.34
2018-12-06T04:25:14.162Z,2.41
2018-12-06T04:27:43.872Z,2.41
2018-12-06T04:30:11.482Z,2.47
2018-12-06T04:32:39.794Z,2.46
2018-12-06T04:35:07.599Z,2.48
2018-12-06T04:37:36.129Z,2.51
2018-12-06T04:40:04.706Z,2.50
2018-12-06T04:42:32.324Z,2.54
2018-12-06T04:44:59.947Z,2.46
2018-12-06T04:47:27.609Z,2.57
2018-12-06T04:49:55.221Z,2.56
2018-12-06T04:52:22.848Z,2.63
2018-12-06T04:54:50.514Z,2.52
2018-12-06T04:57:18.148Z,2.59
2018-12-06T04:59:46.563Z,2.63
2018-12-06T05:02:15.030Z,2.59
2018-12-06T05:04:43.565Z,2.66
2018-12-06T05:07:11.180Z,2.64
2018-12-06T05:09:38.794Z,2.62
2018-12-06T05:12:06.564Z,2.70
2018-12-06T05:14:35.084Z,2.54
2018-12-06T05:17:02.862Z,2.66
2018-12-06T05:19:30.568Z,2.62
2018-12-06T05:21:58.260Z,2.70
2018-12-06T05:24:25.890Z,2.72
2018-12-06T05:26:53.516Z,2.71
2018-12-06T05:29:21.939Z,2.70
2018-12-06T05:31:49.719Z,2.66
2018-12-06T05:34:17.512Z,2.69
2018-12-06T05:36:45.962Z,2.73
2018-12-06T05:39:13.584Z,2.70
2018-12-06T05:41:42.001Z,2.72
2018-12-06T05:44:10.420Z,2.78
2018-12-06T05:46:39.323Z,2.80
2018-12-06T05:49:07.019Z,2.76
2018-12-06T05:51:35.689Z,2.81
2018-12-06T05:54:03.403Z,2.84
2018-12-06T05:56:31.954Z,2.89
2018-12-06T05:58:59.578Z,2.80
2018-12-06T06:01:27.924Z,2.90
2018-12-06T06:03:55.557Z,2.89
2018-12-06T06:06:23.172Z,2.92
2018-12-06T06:08:51.626Z,2.89
2018-12-06T06:11:19.247Z,2.88
2018-12-06T06:13:47.781Z,2.89
2018-12-06T06:16:16.362Z,2.87
2018-12-06T06:18:44.749Z,2.91
2018-12-06T06:21:13.792Z,2.87
2018-12-06T06:23:41.751Z,2.95
2018-12-06T06:26:10.329Z,2.93
2018-12-06T06:28:37.952Z,3.00
2018-12-06T06:31:06.514Z,2.84
2018-12-06T06:33:34.136Z,2.87
2018-12-06T06:36:02.702Z,2.94
2018-12-06T06:38:30.301Z,2.93
2018-12-06T06:40:57.964Z,3.04
2018-12-06T06:43:26.515Z,2.96
2018-12-06T06:45:55.087Z,2.97
2018-12-06T06:48:22.730Z,2.98
2018-12-06T06:50:50.353Z,2.93
2018-12-06T06:53:18.943Z,3.01
2018-12-06T06:55:46.583Z,2.93
2018-12-06T06:58:15.020Z,2.94
2018-12-06T07:00:43.599Z,2.95
2018-12-06T07:03:12.572Z,2.96
2018-12-06T07:05:41.004Z,2.96
2018-12-06T07:08:09.562Z,2.94
2018-12-06T07:10:38.132Z,2.91
2018-12-06T07:13:05.809Z,3.03
2018-12-06T07:15:34.180Z,2.98
2018-12-06T07:18:02.577Z,3.02
2018-12-06T07:20:30.998Z,3.00
2018-12-06T07:23:00.967Z,3.06
2018-12-06T07:25:29.833Z,3.08
2018-12-06T07:27:57.462Z,3.07
2018-12-06T07:30:25.083Z,3.14
2018-12-06T07:32:53.737Z,3.21
2018-12-06T07:35:21.390Z,3.18
2018-12-06T07:37:49.861Z,3.10
2018-12-06T07:40:18.418Z,3.05
2018-12-06T07:42:46.891Z,2.99
2018-12-06T07:45:16.581Z,3.08
2018-12-06T07:47:46.171Z,3.09
2018-12-06T07:50:14.747Z,3.01
2018-12-06T07:52:42.367Z,2.94
2018-12-06T07:55:10.153Z,3.05
2018-12-06T07:57:38.670Z,3.05
2018-12-06T08:00:08.868Z,3.02
2018-12-06T08:02:36.589Z,3.09
2018-12-06T08:05:06.317Z,3.10
2018-12-06T08:07:35.627Z,3.01
2018-12-06T08:10:04.432Z,2.97
2018-12-06T08:12:32.074Z,3.10
2018-12-06T08:14:59.694Z,3.17
2018-12-06T08:17:28.098Z,3.32
2018-12-06T08:19:55.711Z,3.39
2018-12-06T08:22:23.344Z,3.48
2018-12-06T08:24:50.964Z,3.52
2018-12-06T08:27:19.525Z,3.50
2018-12-06T08:29:47.970Z,3.58
2018-12-06T08:32:19.207Z,3.69
2018-12-06T08:34:46.942Z,3.85
2018-12-06T08:37:14.658Z,4.09
2018-12-06T08:39:42.292Z,4.29
2018-12-06T08:42:09.908Z,4.36
2018-12-06T08:44:37.564Z,4.36
2018-12-06T08:47:06.119Z,4.31
2018-12-06T08:49:33.786Z,4.33
2018-12-06T08:52:02.260Z,4.39
2018-12-06T08:54:32.085Z,4.30
2018-12-06T08:56:59.711Z,4.31
2018-12-06T08:59:28.536Z,4.41
2018-12-06T09:01:56.159Z,4.49
2018-12-06T09:04:25.232Z,4.41
2018-12-06T09:06:52.890Z,4.46
2018-12-06T09:09:20.838Z,4.61
2018-12-06T09:11:49.401Z,4.57
2018-12-06T09:14:17.123Z,4.72
2018-12-06T09:16:45.483Z,4.70
2018-12-06T09:19:14.901Z,4.72
2018-12-06T09:21:43.318Z,4.64
2018-12-06T09:24:10.998Z,4.75
2018-12-06T09:26:40.149Z,4.82
2018-12-06T09:29:08.626Z,4.92
2018-12-06T09:31:37.110Z,4.95
2018-12-06T09:34:06.121Z,5.08
2018-12-06T09:36:34.581Z,5.09
2018-12-06T09:39:02.201Z,4.98
2018-12-06T09:41:29.951Z,4.94
2018-12-06T09:43:58.685Z,5.05
2018-12-06T09:46:26.415Z,5.01
2018-12-06T09:48:54.040Z,5.12
2018-12-06T09:51:21.755Z,5.25
2018-12-06T09:53:49.388Z,5.27
2018-12-06T09:56:17.795Z,5.22
2018-12-06T09:58:46.236Z,5.28
2018-12-06T10:01:13.860Z,5.28
2018-12-06T10:03:42.457Z,5.23
2018-12-06T10:06:10.081Z,5.38
2018-12-06T10:08:37.717Z,5.29
2018-12-06T10:11:05.344Z,5.24
2018-12-06T10:13:33.972Z,5.16
2018-12-06T10:16:04.552Z,5.34
2018-12-06T10:18:33.863Z,5.19
2018-12-06T10:21:03.624Z,5.30
2018-12-06T10:23:32.055Z,5.14
2018-12-06T10:26:00.456Z,5.00
2018-12-06T10:28:28.475Z,5.06
2018-12-06T10:30:56.084Z,5.17
2018-12-06T10:33:23.954Z,5.19
2018-12-06T10:35:53.323Z,5.31
2018-12-06T10:38:21.005Z,5.35
2018-12-06T10:40:49.521Z,5.44
2018-12-06T10:43:17.317Z,5.61
2018-12-06T10:45:45.955Z,5.78
2018-12-06T10:48:14.363Z,5.86
2018-12-06T10:50:42.172Z,5.76
2018-12-06T10:53:11.568Z,5.68
2018-12-06T10:55:40.189Z,5.54
2018-12-06T10:58:07.809Z,5.71
2018-12-06T11:00:42.087Z,5.67
2018-12-06T11:03:13.678Z,5.71
2018-12-06T11:05:41.334Z,5.63
2018-12-06T11:08:09.064Z,5.71
2018-12-06T11:10:36.793Z,5.83
2018-12-06T11:13:04.438Z,5.92
2018-12-06T11:15:32.053Z,5.95
2018-12-06T11:17:59.715Z,6.12
2018-12-06T11:20:29.825Z,5.99
2018-12-06T11:22:57.499Z,5.99
2018-12-06T11:25:25.271Z,5.91
2018-12-06T11:27:53.859Z,6.07
2018-12-06T11:30:22.396Z,6.24
2018-12-06T11:32:50.227Z,6.17
2018-12-06T11:35:18.539Z,6.22
2018-12-06T11:37:46.223Z,6.26
2018-12-06T11:40:13.917Z,6.24
2018-12-06T11:42:41.532Z,6.40
2018-12-06T11:45:10.144Z,6.32
2018-12-06T11:47:38.634Z,6.46
2018-12-06T11:50:08.315Z,6.53
2018-12-06T11:52:36.714Z,6.51
2018-12-06T11:55:05.415Z,6.63
2018-12-06T11:57:33.449Z,6.75
2018-12-06T12:00:01.061Z,6.51
2018-12-06T12:02:28.692Z,6.65
2018-12-06T12:04:56.369Z,6.61
2018-12-06T12:07:23.992Z,6.54
2018-12-06T12:09:51.611Z,6.67
2018-12-06T12:12:19.435Z,6.63
2018-12-06T12:14:47.167Z,6.58
2018-12-06T12:17:14.997Z,6.61
2018-12-06T12:19:45.687Z,6.67
2018-12-06T12:22:13.505Z,6.80
2018-12-06T12:24:41.300Z,6.86
2018-12-06T12:27:10.740Z,6.70
2018-12-06T12:29:38.685Z,6.65
2018-12-06T12:32:06.504Z,6.66
2018-12-06T12:34:34.304Z,6.63
2018-12-06T12:37:02.740Z,6.77
2018-12-06T12:39:30.444Z,6.80
2018-12-06T12:42:01.054Z,6.90
2018-12-06T12:44:28.835Z,6.96
2018-12-06T12:46:56.667Z,6.89
2018-12-06T12:49:24.283Z,7.02
2018-12-06T12:51:52.878Z,6.94
2018-12-06T12:54:21.277Z,6.95
2018-12-06T12:56:49.979Z,6.96
2018-12-06T12:59:17.669Z,6.95
2018-12-06T13:01:45.373Z,6.89
2018-12-06T13:04:13.198Z,6.91
2018-12-06T13:06:41.820Z,6.86
2018-12-06T13:09:09.624Z,6.79
2018-12-06T13:11:40.083Z,6.80
2018-12-06T13:14:08.910Z,6.91
2018-12-06T13:16:36.803Z,6.73
2018-12-06T13:19:04.819Z,6.72
2018-12-06T13:21:33.359Z,6.78
2018-12-06T13:24:01.168Z,6.78
2018-12-06T13:26:29.883Z,6.78
2018-12-06T13:28:57.527Z,6.64
2018-12-06T13:31:25.377Z,6.72
2018-12-06T13:33:53.104Z,6.70
2018-12-06T13:36:20.884Z,6.66
2018-12-06T13:38:49.417Z,6.54
2018-12-06T13:41:17.181Z,6.42
2018-12-06T13:43:45.074Z,6.52
2018-12-06T13:46:13.786Z,6.43
2018-12-06T13:48:45.368Z,6.42
2018-12-06T13:51:13.877Z,6.36
2018-12-06T13:53:41.664Z,6.40
2018-12-06T13:56:09.316Z,6.37
2018-12-06T13:58:37.088Z,6.26
2018-12-06T14:01:09.683Z,6.30
2018-12-06T14:03:37.612Z,6.32
2018-12-06T14:06:05.401Z,6.37
2018-12-06T14:08:34.946Z,6.24
2018-12-06T14:11:03.355Z,6.33
2018-12-06T14:13:31.530Z,6.30
2018-12-06T14:15:59.343Z,6.23
2018-12-06T14:18:27.132Z,6.24
2018-12-06T14:20:55.856Z,6.30
2018-12-06T14:23:23.643Z,6.21
2018-12-06T14:25:51.344Z,6.17
2018-12-06T14:28:19.122Z,6.30
2018-12-06T14:30:47.731Z,6.30
2018-12-06T14:33:15.527Z,6.24
2018-12-06T14:35:43.350Z,6.19
2018-12-06T14:38:11.120Z,6.27
2018-12-06T14:40:39.500Z,6.31
2018-12-06T14:43:08.256Z,6.34
2018-12-06T14:45:36.256Z,6.20
2018-12-06T14:48:05.588Z,6.28
2018-12-06T14:50:34.318Z,6.29
2018-12-06T14:53:01.975Z,6.34
2018-12-06T14:55:31.448Z,6.16
2018-12-06T14:57:59.475Z,6.14
2018-12-06T15:00:27.340Z,6.10
2018-12-06T15:02:55.056Z,6.26
2018-12-06T15:05:22.829Z,6.20
2018-12-06T15:07:51.362Z,6.44
2018-12-06T15:10:19.159Z,6.32
2018-12-06T15:12:46.938Z,6.31
2018-12-06T15:15:15.653Z,6.35
2018-12-06T15:17:43.448Z,6.33
2018-12-06T15:20:12.160Z,6.40
2018-12-06T15:22:39.801Z,6.44
2018-12-06T15:25:08.307Z,6.57
2018-12-06T15:27:37.860Z,6.69
2018-12-06T15:30:06.877Z,6.64
2018-12-06T15:32:34.542Z,6.49
2018-12-06T15:35:02.294Z,6.54
2018-12-06T15:37:31.107Z,6.60
2018-12-06T15:39:58.831Z,6.57
2018-12-06T15:42:26.583Z,6.60
2018-12-06T15:44:54.301Z,6.63
2018-12-06T15:47:22.071Z,6.64
2018-12-06T15:49:50.682Z,6.66
2018-12-06T15:52:18.589Z,6.74
2018-12-06T15:54:46.206Z,6.75
2018-12-06T15:57:13.828Z,6.78
2018-12-06T15:59:41.468Z,6.70
2018-12-06T16:02:09.356Z,6.66
2018-12-06T16:04:37.250Z,6.64
2018-12-06T16:07:06.087Z,6.69
2018-12-06T16:09:33.722Z,6.70
2018-12-06T16:12:02.370Z,6.71
2018-12-06T16:14:29.989Z,6.78
2018-12-06T16:16:57.755Z,6.78
2018-12-06T16:19:25.424Z,6.74
2018-12-06T16:21:54.043Z,6.75
2018-12-06T16:24:21.791Z,6.66
2018-12-06T16:26:50.501Z,6.61
2018-12-06T16:29:19.117Z,6.66
2018-12-06T16:31:46.827Z,6.70
2018-12-06T16:34:15.978Z,6.76
2018-12-06T16:36:44.392Z,6.66
2018-12-06T16:39:12.168Z,6.71
2018-12-06T16:41:40.685Z,6.71
2018-12-06T16:44:08.301Z,6.66
2018-12-06T16:46:35.918Z,6.69
2018-12-06T16:49:10.116Z,6.74
2018-12-06T16:51:35.597Z,6.74
2018-12-06T16:54:03.358Z,6.81
2018-12-06T16:56:33.161Z,6.76
2018-12-06T16:59:01.036Z,6.71
2018-12-06T17:01:28.697Z,6.73
2018-12-06T17:03:56.564Z,6.64
2018-12-06T17:06:29.603Z,6.71
2018-12-06T17:08:57.252Z,6.72
2018-12-06T17:11:25.591Z,6.75
2018-12-06T17:13:53.216Z,6.67
2018-12-06T17:16:21.782Z,6.69
2018-12-06T17:18:49.780Z,6.78
2018-12-06T17:21:20.065Z,6.81
2018-12-06T17:23:47.694Z,6.77
2018-12-06T17:26:16.113Z,6.68
2018-12-06T17:28:43.838Z,6.77
2018-12-06T17:31:11.417Z,6.72
2018-12-06T17:33:39.024Z,6.75
2018-12-06T17:36:06.645Z,6.79
2018-12-06T17:38:35.222Z,6.81
2018-12-06T17:41:03.772Z,6.85
2018-12-06T17:43:32.165Z,6.89
2018-12-06T17:46:01.119Z,6.82
2018-12-06T17:48:29.574Z,6.83
2018-12-06T17:50:58.112Z,6.92
2018-12-06T17:53:25.829Z,6.96
2018-12-06T17:55:54.445Z,6.92
2018-12-06T17:58:22.077Z,6.91
2018-12-06T18:00:49.857Z,6.91
2018-12-06T18:03:18.092Z,6.85
2018-12-06T18:05:45.904Z,6.88
2018-12-06T18:08:14.397Z,6.94
2018-12-06T18:10:42.582Z,6.98
2018-12-06T18:13:10.456Z,6.95
2018-12-06T18:15:38.289Z,7.05
2018-12-06T18:18:06.081Z,7.08
2018-12-06T18:20:33.779Z,7.14
2018-12-06T18:23:02.087Z,7.08
2018-12-06T18:25:29.872Z,7.15
2018-12-06T18:27:57.719Z,7.21
2018-12-06T18:30:26.176Z,7.20
2018-12-06T18:32:53.927Z,7.24
2018-12-06T18:35:21.540Z,7.24
2018-12-06T18:37:50.206Z,7.31
2018-12-06T18:40:19.491Z,7.40
2018-12-06T18:42:47.868Z,7.35
2018-12-06T18:45:16.382Z,7.32
2018-12-06T18:47:44.169Z,7.39
2018-12-06T18:50:12.767Z,7.41
2018-12-06T18:52:40.443Z,7.44
2018-12-06T18:55:09.130Z,7.40
2018-12-06T18:57:37.718Z,7.38
2018-12-06T19:00:07.958Z,7.45
2018-12-06T19:02:35.636Z,7.46
2018-12-06T19:05:04.508Z,7.56
2018-12-06T19:07:33.391Z,7.58
2018-12-06T19:10:01.104Z,7.59
2018-12-06T19:12:28.868Z,7.55
2018-12-06T19:14:56.525Z,7.60
2018-12-06T19:17:24.349Z,7.69
2018-12-06T19:19:52.163Z,7.83
2018-12-06T19:22:20.792Z,7.89
2018-12-06T19:24:48.597Z,7.80
2018-12-06T19:27:16.421Z,7.85
2018-12-06T19:29:44.297Z,7.80
2018-12-06T19:32:14.052Z,7.78
2018-12-06T19:34:42.172Z,7.78
2018-12-06T19:37:10.089Z,7.81
2018-12-06T19:39:38.666Z,7.78
2018-12-06T19:42:06.387Z,7.80
2018-12-06T19:44:34.180Z,7.88
2018-12-06T19:47:02.639Z,7.88
2018-12-06T19:49:30.430Z,7.91
2018-12-06T19:51:58.219Z,7.88
2018-12-06T19:54:26.010Z,8.01
2018-12-06T19:56:54.804Z,8.03
2018-12-06T19:59:23.241Z,8.02
2018-12-06T20:01:51.144Z,7.99
2018-12-06T20:04:18.971Z,7.84
2018-12-06T20:06:46.786Z,7.95
2018-12-06T20:09:15.458Z,7.96
2018-12-06T20:11:43.304Z,8.05
2018-12-06T20:14:11.115Z,8.03
2018-12-06T20:17:09.951Z,8.10
2018-12-06T20:19:37.749Z,8.20
2018-12-06T20:22:08.173Z,8.14
2018-12-06T20:24:37.863Z,8.08
2018-12-06T20:27:05.583Z,8.10
2018-12-06T20:29:34.163Z,8.11
2018-12-06T20:32:03.228Z,8.26
2018-12-06T20:34:32.983Z,8.14
2018-12-06T20:37:01.296Z,8.09
2018-12-06T20:39:29.082Z,8.16
2018-12-06T20:41:56.872Z,8.19
2018-12-06T20:44:24.662Z,8.22
2018-12-06T20:46:52.473Z,8.27
2018-12-06T20:49:20.263Z,8.17
2018-12-06T20:51:48.987Z,8.20
2018-12-06T20:54:17.460Z,8.25
2018-12-06T20:56:45.980Z,8.31
2018-12-06T20:59:13.809Z,8.23
2018-12-06T21:01:41.507Z,8.21
2018-12-06T21:04:09.295Z,8.12
2018-12-06T21:06:37.114Z,8.31
2018-12-06T21:09:06.364Z,8.34
2018-12-06T21:11:34.153Z,8.36
2018-12-06T21:14:02.326Z,8.34
2018-12-06T21:16:30.147Z,8.28
2018-12-06T21:18:58.044Z,8.24
2018-12-06T21:21:25.948Z,8.24
2018-12-06T21:23:53.813Z,8.28
2018-12-06T21:26:21.519Z,8.27
2018-12-06T21:28:50.128Z,8.26
2018-12-06T21:31:17.917Z,8.27
2018-12-06T21:33:45.716Z,8.26
2018-12-06T21:36:13.521Z,8.31
2018-12-06T21:38:42.131Z,8.27
2018-12-06T21:41:09.922Z,8.20
2018-12-06T21:43:38.645Z,8.20
2018-12-06T21:46:06.447Z,8.27
2018-12-06T21:48:35.060Z,8.29
2018-12-06T21:51:03.780Z,8.43
2018-12-06T21:53:32.400Z,8.36
2018-12-06T21:56:00.303Z,8.38
2018-12-06T21:58:28.182Z,8.34
2018-12-06T22:00:55.983Z,8.23
2018-12-06T22:03:23.773Z,8.32
2018-12-06T22:05:51.566Z,8.35
2018-12-06T22:08:19.367Z,8.40
2018-12-06T22:10:47.175Z,8.54
2018-12-06T22:13:14.967Z,8.56
2018-12-06T22:15:42.684Z,8.45
2018-12-06T22:18:10.546Z,8.50
2018-12-06T22:20:38.375Z,8.48
2018-12-06T22:23:06.870Z,8.43
2018-12-06T22:25:36.809Z,8.41
2018-12-06T22:28:05.959Z,8.45
2018-12-06T22:30:33.773Z,8.46
2018-12-06T22:33:02.306Z,8.47
2018-12-06T22:35:30.092Z,8.55
2018-12-06T22:37:57.829Z,8.52
2018-12-06T22:40:25.617Z,8.55
2018-12-06T22:42:53.401Z,8.57
2018-12-06T22:48:22.089Z,8.54
2018-12-06T22:50:49.902Z,8.58
2018-12-06T22:53:18.533Z,8.57
2018-12-06T22:55:46.326Z,8.60
2018-12-06T22:58:14.849Z,8.57
2018-12-06T23:00:45.035Z,8.54
2018-12-06T23:03:12.846Z,8.55
2018-12-06T23:05:40.705Z,8.54
2018-12-06T23:08:08.455Z,8.62
2018-12-06T23:10:36.281Z,8.69
2018-12-06T23:13:04.094Z,8.64
2018-12-06T23:15:32.172Z,8.66
2018-12-06T23:17:59.996Z,8.73
2018-12-06T23:20:27.675Z,8.71
2018-12-06T23:22:55.486Z,8.70
2018-12-06T23:25:23.116Z,8.77
2018-12-06T23:27:50.871Z,8.80
2018-12-06T23:30:18.498Z,8.80
2018-12-06T23:32:46.115Z,8.93
2018-12-06T23:35:13.834Z,8.93
2018-12-06T23:37:41.661Z,8.94
2018-12-06T23:40:09.516Z,8.88
2018-12-06T23:42:37.257Z,8.92
2018-12-06T23:45:06.275Z,8.95
2018-12-06T23:47:34.891Z,9.02
2018-12-06T23:50:03.687Z,9.00
2018-12-06T23:52:32.120Z,9.05
2018-12-06T23:55:01.062Z,9.11
2018-12-06T23:57:28.763Z,9.12
2018-12-06T23:59:57.454Z,9.05
